sensor_id;sensor_type;location;lat;lon;timestamp;temperature;humidity
20803;DHT22;10562;-33.856;151.182;2022-08-23T00:00:17;20.00;99.90
20803;DHT22;10562;-33.856;151.182;2022-08-23T00:02:49;20.10;99.90
20803;DHT22;10562;-33.856;151.182;2022-08-23T00:05:19;20.10;99.90
20803;DHT22;10562;-33.856;151.182;2022-08-23T00:07:50;20.30;99.90
20803;DHT22;10562;-33.856;151.182;2022-08-23T00:10:25;20.20;99.90
20803;DHT22;10562;-33.856;151.182;2022-08-23T00:12:57;20.40;99.90
20803;DHT22;10562;-33.856;151.182;2022-08-23T00:15:28;20.40;99.90
20803;DHT22;10562;-33.856;151.182;2022-08-23T00:18:00;20.50;99.90
20803;DHT22;10562;-33.856;151.182;2022-08-23T00:20:31;20.80;99.90
20803;DHT22;10562;-33.856;151.182;2022-08-23T00:23:03;20.70;99.90
20803;DHT22;10562;-33.856;151.182;2022-08-23T00:25:34;20.80;99.90
20803;DHT22;10562;-33.856;151.182;2022-08-23T00:28:07;20.90;99.90
20803;DHT22;10562;-33.856;151.182;2022-08-23T00:30:38;21.00;99.90
20803;DHT22;10562;-33.856;151.182;2022-08-23T00:33:09;21.10;99.90
20803;DHT22;10562;-33.856;151.182;2022-08-23T00:35:40;21.20;99.90
20803;DHT22;10562;-33.856;151.182;2022-08-23T00:38:11;21.20;99.90
20803;DHT22;10562;-33.856;151.182;2022-08-23T00:40:42;21.40;99.90
20803;DHT22;10562;-33.856;151.182;2022-08-23T00:43:17;21.70;99.90
20803;DHT22;10562;-33.856;151.182;2022-08-23T00:46:11;21.80;99.90
20803;DHT22;10562;-33.856;151.182;2022-08-23T00:49:01;21.90;99.90
20803;DHT22;10562;-33.856;151.182;2022-08-23T00:51:42;21.90;99.90
20803;DHT22;10562;-33.856;151.182;2022-08-23T00:54:17;22.10;99.90
20803;DHT22;10562;-33.856;151.182;2022-08-23T00:56:48;22.20;99.90
20803;DHT22;10562;-33.856;151.182;2022-08-23T00:59:22;22.20;99.90
20803;DHT22;10562;-33.856;151.182;2022-08-23T01:01:53;22.30;99.90
20803;DHT22;10562;-33.856;151.182;2022-08-23T01:04:26;22.30;99.90
20803;DHT22;10562;-33.856;151.182;2022-08-23T01:07:08;22.40;99.90
20803;DHT22;10562;-33.856;151.182;2022-08-23T01:09:42;22.30;99.90
20803;DHT22;10562;-33.856;151.182;2022-08-23T01:12:17;22.30;99.90
20803;DHT22;10562;-33.856;151.182;2022-08-23T01:14:56;22.40;99.90
20803;DHT22;10562;-33.856;151.182;2022-08-23T01:17:33;22.30;99.90
20803;DHT22;10562;-33.856;151.182;2022-08-23T01:20:09;22.30;99.90
20803;DHT22;10562;-33.856;151.182;2022-08-23T01:22:43;22.40;99.90
20803;DHT22;10562;-33.856;151.182;2022-08-23T01:25:21;22.50;99.90
20803;DHT22;10562;-33.856;151.182;2022-08-23T01:27:53;22.60;99.90
20803;DHT22;10562;-33.856;151.182;2022-08-23T01:30:27;22.80;99.90
20803;DHT22;10562;-33.856;151.182;2022-08-23T01:33:02;22.80;99.90
20803;DHT22;10562;-33.856;151.182;2022-08-23T01:35:37;22.90;99.90
20803;DHT22;10562;-33.856;151.182;2022-08-23T01:38:09;23.00;99.90
20803;DHT22;10562;-33.856;151.182;2022-08-23T01:40:42;23.30;99.90
20803;DHT22;10562;-33.856;151.182;2022-08-23T01:43:14;23.50;99.90
20803;DHT22;10562;-33.856;151.182;2022-08-23T01:45:47;23.40;99.90
20803;DHT22;10562;-33.856;151.182;2022-08-23T01:48:19;23.70;99.90
20803;DHT22;10562;-33.856;151.182;2022-08-23T01:50:50;24.10;99.90
20803;DHT22;10562;-33.856;151.182;2022-08-23T01:53:21;24.10;99.90
20803;DHT22;10562;-33.856;151.182;2022-08-23T01:55:55;23.90;99.90
20803;DHT22;10562;-33.856;151.182;2022-08-23T01:58:29;23.10;99.90
20803;DHT22;10562;-33.856;151.182;2022-08-23T02:01:00;22.90;99.90
20803;DHT22;10562;-33.856;151.182;2022-08-23T02:03:32;22.80;99.90
20803;DHT22;10562;-33.856;151.182;2022-08-23T02:06:04;22.60;99.90
20803;DHT22;10562;-33.856;151.182;2022-08-23T02:08:35;22.60;99.90
20803;DHT22;10562;-33.856;151.182;2022-08-23T02:11:24;22.70;99.90
20803;DHT22;10562;-33.856;151.182;2022-08-23T02:13:57;22.70;99.90
20803;DHT22;10562;-33.856;151.182;2022-08-23T02:16:31;23.20;99.90
20803;DHT22;10562;-33.856;151.182;2022-08-23T02:19:03;23.60;99.90
20803;DHT22;10562;-33.856;151.182;2022-08-23T02:21:35;23.50;99.90
20803;DHT22;10562;-33.856;151.182;2022-08-23T02:24:07;22.90;99.90
20803;DHT22;10562;-33.856;151.182;2022-08-23T02:26:42;22.70;99.90
20803;DHT22;10562;-33.856;151.182;2022-08-23T02:29:14;22.20;99.90
20803;DHT22;10562;-33.856;151.182;2022-08-23T02:31:45;21.90;99.90
20803;DHT22;10562;-33.856;151.182;2022-08-23T02:34:17;21.70;99.90
20803;DHT22;10562;-33.856;151.182;2022-08-23T02:36:48;21.80;99.90
20803;DHT22;10562;-33.856;151.182;2022-08-23T02:39:19;21.90;99.90
20803;DHT22;10562;-33.856;151.182;2022-08-23T02:41:52;21.80;99.90
20803;DHT22;10562;-33.856;151.182;2022-08-23T02:44:23;21.90;99.90
20803;DHT22;10562;-33.856;151.182;2022-08-23T02:46:54;22.50;99.90
20803;DHT22;10562;-33.856;151.182;2022-08-23T02:49:25;22.80;99.90
20803;DHT22;10562;-33.856;151.182;2022-08-23T02:51:56;22.90;99.90
20803;DHT22;10562;-33.856;151.182;2022-08-23T02:54:27;22.80;99.90
20803;DHT22;10562;-33.856;151.182;2022-08-23T02:57:00;22.80;99.90
20803;DHT22;10562;-33.856;151.182;2022-08-23T02:59:31;22.70;99.90
20803;DHT22;10562;-33.856;151.182;2022-08-23T03:02:02;22.60;99.90
20803;DHT22;10562;-33.856;151.182;2022-08-23T03:04:33;22.50;99.90
20803;DHT22;10562;-33.856;151.182;2022-08-23T03:07:04;22.30;99.90
20803;DHT22;10562;-33.856;151.182;2022-08-23T03:09:35;21.20;99.90
20803;DHT22;10562;-33.856;151.182;2022-08-23T03:12:08;19.90;99.90
20803;DHT22;10562;-33.856;151.182;2022-08-23T03:14:39;18.80;99.90
20803;DHT22;10562;-33.856;151.182;2022-08-23T03:17:10;17.80;99.90
20803;DHT22;10562;-33.856;151.182;2022-08-23T03:19:41;17.20;99.90
20803;DHT22;10562;-33.856;151.182;2022-08-23T03:22:12;17.00;99.90
20803;DHT22;10562;-33.856;151.182;2022-08-23T03:24:42;16.90;99.90
20803;DHT22;10562;-33.856;151.182;2022-08-23T03:27:15;16.50;99.90
20803;DHT22;10562;-33.856;151.182;2022-08-23T03:29:47;16.50;99.90
20803;DHT22;10562;-33.856;151.182;2022-08-23T03:32:18;16.30;99.90
20803;DHT22;10562;-33.856;151.182;2022-08-23T03:34:49;16.30;99.90
20803;DHT22;10562;-33.856;151.182;2022-08-23T03:37:20;16.20;99.90
20803;DHT22;10562;-33.856;151.182;2022-08-23T03:39:51;16.00;99.90
20803;DHT22;10562;-33.856;151.182;2022-08-23T03:42:24;15.90;99.90
20803;DHT22;10562;-33.856;151.182;2022-08-23T03:44:54;15.70;99.90
20803;DHT22;10562;-33.856;151.182;2022-08-23T03:47:25;15.50;99.90
20803;DHT22;10562;-33.856;151.182;2022-08-23T03:49:56;15.50;99.90
20803;DHT22;10562;-33.856;151.182;2022-08-23T03:52:27;15.40;99.90
20803;DHT22;10562;-33.856;151.182;2022-08-23T03:54:58;15.00;99.90
20803;DHT22;10562;-33.856;151.182;2022-08-23T03:57:31;14.80;99.90
20803;DHT22;10562;-33.856;151.182;2022-08-23T04:00:02;14.70;99.90
20803;DHT22;10562;-33.856;151.182;2022-08-23T04:02:33;14.60;99.90
20803;DHT22;10562;-33.856;151.182;2022-08-23T04:05:05;14.50;99.90
20803;DHT22;10562;-33.856;151.182;2022-08-23T04:07:37;14.30;99.90
20803;DHT22;10562;-33.856;151.182;2022-08-23T04:10:09;14.10;99.90
20803;DHT22;10562;-33.856;151.182;2022-08-23T04:12:44;13.80;99.90
20803;DHT22;10562;-33.856;151.182;2022-08-23T04:15:15;13.60;99.90
20803;DHT22;10562;-33.856;151.182;2022-08-23T04:17:47;13.40;99.90
20803;DHT22;10562;-33.856;151.182;2022-08-23T04:20:18;13.30;99.90
20803;DHT22;10562;-33.856;151.182;2022-08-23T04:22:52;13.20;99.90
20803;DHT22;10562;-33.856;151.182;2022-08-23T04:25:24;13.10;99.90
20803;DHT22;10562;-33.856;151.182;2022-08-23T04:27:56;13.10;99.90
20803;DHT22;10562;-33.856;151.182;2022-08-23T04:30:28;12.80;99.90
20803;DHT22;10562;-33.856;151.182;2022-08-23T04:32:59;12.70;99.90
20803;DHT22;10562;-33.856;151.182;2022-08-23T04:35:29;12.60;99.90
20803;DHT22;10562;-33.856;151.182;2022-08-23T04:38:00;12.50;99.90
20803;DHT22;10562;-33.856;151.182;2022-08-23T04:40:31;12.40;99.90
20803;DHT22;10562;-33.856;151.182;2022-08-23T04:43:20;12.20;99.90
20803;DHT22;10562;-33.856;151.182;2022-08-23T04:45:52;12.10;99.90
20803;DHT22;10562;-33.856;151.182;2022-08-23T04:48:23;11.90;99.90
20803;DHT22;10562;-33.856;151.182;2022-08-23T04:50:54;11.80;99.90
20803;DHT22;10562;-33.856;151.182;2022-08-23T04:53:25;11.80;99.90
20803;DHT22;10562;-33.856;151.182;2022-08-23T04:55:57;11.60;99.90
20803;DHT22;10562;-33.856;151.182;2022-08-23T04:58:31;11.60;99.90
20803;DHT22;10562;-33.856;151.182;2022-08-23T05:01:04;11.50;99.90
20803;DHT22;10562;-33.856;151.182;2022-08-23T05:03:35;11.50;99.90
20803;DHT22;10562;-33.856;151.182;2022-08-23T05:06:07;11.40;99.90
20803;DHT22;10562;-33.856;151.182;2022-08-23T05:08:38;11.40;99.90
20803;DHT22;10562;-33.856;151.182;2022-08-23T05:11:09;11.30;99.90
20803;DHT22;10562;-33.856;151.182;2022-08-23T05:13:42;11.30;99.90
20803;DHT22;10562;-33.856;151.182;2022-08-23T05:16:13;11.20;99.90
20803;DHT22;10562;-33.856;151.182;2022-08-23T05:18:44;11.10;99.90
20803;DHT22;10562;-33.856;151.182;2022-08-23T05:21:17;11.10;99.90
20803;DHT22;10562;-33.856;151.182;2022-08-23T05:23:48;11.00;99.90
20803;DHT22;10562;-33.856;151.182;2022-08-23T05:26:20;11.00;99.90
20803;DHT22;10562;-33.856;151.182;2022-08-23T05:28:52;10.80;99.90
20803;DHT22;10562;-33.856;151.182;2022-08-23T05:31:25;10.70;99.90
20803;DHT22;10562;-33.856;151.182;2022-08-23T05:33:57;10.70;99.90
20803;DHT22;10562;-33.856;151.182;2022-08-23T05:36:28;10.70;99.90
20803;DHT22;10562;-33.856;151.182;2022-08-23T05:38:59;10.70;99.90
20803;DHT22;10562;-33.856;151.182;2022-08-23T05:41:30;10.60;99.90
20803;DHT22;10562;-33.856;151.182;2022-08-23T05:44:03;10.60;99.90
20803;DHT22;10562;-33.856;151.182;2022-08-23T05:46:33;10.50;99.90
20803;DHT22;10562;-33.856;151.182;2022-08-23T05:49:05;10.40;99.90
20803;DHT22;10562;-33.856;151.182;2022-08-23T05:51:36;10.40;99.90
20803;DHT22;10562;-33.856;151.182;2022-08-23T05:54:07;10.30;99.90
20803;DHT22;10562;-33.856;151.182;2022-08-23T05:56:43;10.30;99.90
20803;DHT22;10562;-33.856;151.182;2022-08-23T05:59:16;10.30;99.90
20803;DHT22;10562;-33.856;151.182;2022-08-23T06:01:47;10.30;99.90
20803;DHT22;10562;-33.856;151.182;2022-08-23T06:04:18;10.30;99.90
20803;DHT22;10562;-33.856;151.182;2022-08-23T06:06:50;10.20;99.90
20803;DHT22;10562;-33.856;151.182;2022-08-23T06:09:23;10.20;99.90
20803;DHT22;10562;-33.856;151.182;2022-08-23T06:11:54;10.10;99.90
20803;DHT22;10562;-33.856;151.182;2022-08-23T06:14:27;10.00;99.90
20803;DHT22;10562;-33.856;151.182;2022-08-23T06:16:58;10.10;99.90
20803;DHT22;10562;-33.856;151.182;2022-08-23T06:19:29;10.00;99.90
20803;DHT22;10562;-33.856;151.182;2022-08-23T06:22:02;10.10;99.90
20803;DHT22;10562;-33.856;151.182;2022-08-23T06:24:32;10.10;99.90
20803;DHT22;10562;-33.856;151.182;2022-08-23T06:27:04;10.10;99.90
20803;DHT22;10562;-33.856;151.182;2022-08-23T06:29:37;10.20;99.90
20803;DHT22;10562;-33.856;151.182;2022-08-23T06:32:07;10.20;99.90
20803;DHT22;10562;-33.856;151.182;2022-08-23T06:34:39;10.10;99.90
20803;DHT22;10562;-33.856;151.182;2022-08-23T06:37:12;10.30;99.90
20803;DHT22;10562;-33.856;151.182;2022-08-23T06:39:44;10.30;99.90
20803;DHT22;10562;-33.856;151.182;2022-08-23T06:42:16;10.30;99.90
20803;DHT22;10562;-33.856;151.182;2022-08-23T06:44:48;10.30;99.90
20803;DHT22;10562;-33.856;151.182;2022-08-23T06:47:19;10.20;99.90
20803;DHT22;10562;-33.856;151.182;2022-08-23T06:49:50;10.20;99.90
20803;DHT22;10562;-33.856;151.182;2022-08-23T06:52:21;10.20;99.90
20803;DHT22;10562;-33.856;151.182;2022-08-23T06:54:52;10.10;99.90
20803;DHT22;10562;-33.856;151.182;2022-08-23T06:57:23;10.00;99.90
20803;DHT22;10562;-33.856;151.182;2022-08-23T06:59:56;10.00;99.90
20803;DHT22;10562;-33.856;151.182;2022-08-23T07:02:27;10.00;99.90
20803;DHT22;10562;-33.856;151.182;2022-08-23T07:04:58;10.00;99.90
20803;DHT22;10562;-33.856;151.182;2022-08-23T07:07:29;10.00;99.90
20803;DHT22;10562;-33.856;151.182;2022-08-23T07:10:00;10.00;99.90
20803;DHT22;10562;-33.856;151.182;2022-08-23T07:12:31;9.90;99.90
20803;DHT22;10562;-33.856;151.182;2022-08-23T07:15:04;9.90;99.90
20803;DHT22;10562;-33.856;151.182;2022-08-23T07:17:36;9.90;99.90
20803;DHT22;10562;-33.856;151.182;2022-08-23T07:20:07;9.80;99.90
20803;DHT22;10562;-33.856;151.182;2022-08-23T07:22:38;9.80;99.90
20803;DHT22;10562;-33.856;151.182;2022-08-23T07:25:10;9.80;99.90
20803;DHT22;10562;-33.856;151.182;2022-08-23T07:27:41;9.80;99.90
20803;DHT22;10562;-33.856;151.182;2022-08-23T07:30:14;9.80;99.90
20803;DHT22;10562;-33.856;151.182;2022-08-23T07:32:45;9.80;99.90
20803;DHT22;10562;-33.856;151.182;2022-08-23T07:35:16;9.80;99.90
20803;DHT22;10562;-33.856;151.182;2022-08-23T07:37:47;9.80;99.90
20803;DHT22;10562;-33.856;151.182;2022-08-23T07:40:18;9.90;99.90
20803;DHT22;10562;-33.856;151.182;2022-08-23T07:42:49;10.00;99.90
20803;DHT22;10562;-33.856;151.182;2022-08-23T07:45:23;9.90;99.90
20803;DHT22;10562;-33.856;151.182;2022-08-23T07:47:54;9.90;99.90
20803;DHT22;10562;-33.856;151.182;2022-08-23T07:50:26;9.90;99.90
20803;DHT22;10562;-33.856;151.182;2022-08-23T07:52:57;9.90;99.90
20803;DHT22;10562;-33.856;151.182;2022-08-23T07:55:29;9.90;99.90
20803;DHT22;10562;-33.856;151.182;2022-08-23T07:58:00;9.80;99.90
20803;DHT22;10562;-33.856;151.182;2022-08-23T08:00:34;9.80;99.90
20803;DHT22;10562;-33.856;151.182;2022-08-23T08:03:05;9.80;99.90
20803;DHT22;10562;-33.856;151.182;2022-08-23T08:05:36;9.80;99.90
20803;DHT22;10562;-33.856;151.182;2022-08-23T08:08:08;9.70;99.90
20803;DHT22;10562;-33.856;151.182;2022-08-23T08:10:39;9.70;99.90
20803;DHT22;10562;-33.856;151.182;2022-08-23T08:13:11;9.70;99.90
20803;DHT22;10562;-33.856;151.182;2022-08-23T08:15:43;9.70;99.90
20803;DHT22;10562;-33.856;151.182;2022-08-23T08:18:14;9.60;99.90
20803;DHT22;10562;-33.856;151.182;2022-08-23T08:20:45;9.50;99.90
20803;DHT22;10562;-33.856;151.182;2022-08-23T08:23:16;9.40;99.90
20803;DHT22;10562;-33.856;151.182;2022-08-23T08:25:47;9.40;99.90
20803;DHT22;10562;-33.856;151.182;2022-08-23T08:28:18;9.30;99.90
20803;DHT22;10562;-33.856;151.182;2022-08-23T08:30:51;9.20;99.90
20803;DHT22;10562;-33.856;151.182;2022-08-23T08:33:22;9.10;99.90
20803;DHT22;10562;-33.856;151.182;2022-08-23T08:35:54;9.10;99.90
20803;DHT22;10562;-33.856;151.182;2022-08-23T08:38:25;9.10;99.90
20803;DHT22;10562;-33.856;151.182;2022-08-23T08:41:03;9.00;99.90
20803;DHT22;10562;-33.856;151.182;2022-08-23T08:43:45;8.90;99.90
20803;DHT22;10562;-33.856;151.182;2022-08-23T08:46:27;8.80;99.90
20803;DHT22;10562;-33.856;151.182;2022-08-23T08:49:02;8.90;99.90
20803;DHT22;10562;-33.856;151.182;2022-08-23T08:51:40;8.90;99.90
20803;DHT22;10562;-33.856;151.182;2022-08-23T08:54:16;8.80;99.90
20803;DHT22;10562;-33.856;151.182;2022-08-23T08:56:51;8.80;99.90
20803;DHT22;10562;-33.856;151.182;2022-08-23T08:59:24;8.90;99.90
20803;DHT22;10562;-33.856;151.182;2022-08-23T09:01:58;8.80;99.90
20803;DHT22;10562;-33.856;151.182;2022-08-23T09:04:29;8.90;99.90
20803;DHT22;10562;-33.856;151.182;2022-08-23T09:07:09;8.90;99.90
20803;DHT22;10562;-33.856;151.182;2022-08-23T09:10:16;8.90;99.90
20803;DHT22;10562;-33.856;151.182;2022-08-23T09:12:56;8.80;99.90
20803;DHT22;10562;-33.856;151.182;2022-08-23T09:15:34;8.60;99.90
20803;DHT22;10562;-33.856;151.182;2022-08-23T09:18:15;8.70;99.90
20803;DHT22;10562;-33.856;151.182;2022-08-23T09:20:50;8.60;99.90
20803;DHT22;10562;-33.856;151.182;2022-08-23T09:23:23;8.60;99.90
20803;DHT22;10562;-33.856;151.182;2022-08-23T09:25:58;8.50;99.90
20803;DHT22;10562;-33.856;151.182;2022-08-23T09:28:30;8.40;99.90
20803;DHT22;10562;-33.856;151.182;2022-08-23T09:31:03;8.50;99.90
20803;DHT22;10562;-33.856;151.182;2022-08-23T09:33:40;8.50;99.90
20803;DHT22;10562;-33.856;151.182;2022-08-23T09:36:17;8.50;99.90
20803;DHT22;10562;-33.856;151.182;2022-08-23T09:38:55;8.50;99.90
20803;DHT22;10562;-33.856;151.182;2022-08-23T09:41:27;8.40;99.90
20803;DHT22;10562;-33.856;151.182;2022-08-23T09:44:04;8.40;99.90
20803;DHT22;10562;-33.856;151.182;2022-08-23T09:46:37;8.40;99.90
20803;DHT22;10562;-33.856;151.182;2022-08-23T09:49:26;8.40;99.90
20803;DHT22;10562;-33.856;151.182;2022-08-23T09:51:59;8.50;99.90
20803;DHT22;10562;-33.856;151.182;2022-08-23T09:54:33;8.40;99.90
20803;DHT22;10562;-33.856;151.182;2022-08-23T09:57:06;8.20;99.90
20803;DHT22;10562;-33.856;151.182;2022-08-23T09:59:41;8.30;99.90
20803;DHT22;10562;-33.856;151.182;2022-08-23T10:02:24;8.30;99.90
20803;DHT22;10562;-33.856;151.182;2022-08-23T10:05:00;8.40;99.90
20803;DHT22;10562;-33.856;151.182;2022-08-23T10:07:37;8.20;99.90
20803;DHT22;10562;-33.856;151.182;2022-08-23T10:10:17;8.20;99.90
20803;DHT22;10562;-33.856;151.182;2022-08-23T10:12:48;8.10;99.90
20803;DHT22;10562;-33.856;151.182;2022-08-23T10:15:22;8.00;99.90
20803;DHT22;10562;-33.856;151.182;2022-08-23T10:17:58;8.10;99.90
20803;DHT22;10562;-33.856;151.182;2022-08-23T10:20:37;8.10;99.90
20803;DHT22;10562;-33.856;151.182;2022-08-23T10:23:19;8.20;99.90
20803;DHT22;10562;-33.856;151.182;2022-08-23T10:25:56;8.10;99.90
20803;DHT22;10562;-33.856;151.182;2022-08-23T10:28:41;7.90;99.90
20803;DHT22;10562;-33.856;151.182;2022-08-23T10:31:37;8.00;99.90
20803;DHT22;10562;-33.856;151.182;2022-08-23T10:34:22;8.00;99.90
20803;DHT22;10562;-33.856;151.182;2022-08-23T10:37:05;7.90;99.90
20803;DHT22;10562;-33.856;151.182;2022-08-23T10:39:45;7.90;99.90
20803;DHT22;10562;-33.856;151.182;2022-08-23T10:42:30;7.80;99.90
20803;DHT22;10562;-33.856;151.182;2022-08-23T10:45:08;7.90;99.90
20803;DHT22;10562;-33.856;151.182;2022-08-23T10:47:50;7.80;99.90
20803;DHT22;10562;-33.856;151.182;2022-08-23T10:50:26;7.80;99.90
20803;DHT22;10562;-33.856;151.182;2022-08-23T10:53:06;7.80;99.90
20803;DHT22;10562;-33.856;151.182;2022-08-23T10:55:41;7.80;99.90
20803;DHT22;10562;-33.856;151.182;2022-08-23T10:58:33;7.70;99.90
20803;DHT22;10562;-33.856;151.182;2022-08-23T11:01:06;7.70;99.90
20803;DHT22;10562;-33.856;151.182;2022-08-23T11:03:42;7.70;99.90
20803;DHT22;10562;-33.856;151.182;2022-08-23T11:09:49;7.90;99.90
20803;DHT22;10562;-33.856;151.182;2022-08-23T11:12:24;7.80;99.90
20803;DHT22;10562;-33.856;151.182;2022-08-23T11:15:17;7.70;99.90
20803;DHT22;10562;-33.856;151.182;2022-08-23T11:18:03;7.70;99.90
20803;DHT22;10562;-33.856;151.182;2022-08-23T11:21:00;7.70;99.90
20803;DHT22;10562;-33.856;151.182;2022-08-23T11:23:44;7.80;99.90
20803;DHT22;10562;-33.856;151.182;2022-08-23T11:29:34;7.70;99.90
20803;DHT22;10562;-33.856;151.182;2022-08-23T11:32:21;7.70;99.90
20803;DHT22;10562;-33.856;151.182;2022-08-23T11:34:58;7.70;99.90
20803;DHT22;10562;-33.856;151.182;2022-08-23T11:37:50;7.70;99.90
20803;DHT22;10562;-33.856;151.182;2022-08-23T11:43:36;7.70;99.90
20803;DHT22;10562;-33.856;151.182;2022-08-23T11:46:28;7.70;99.90
20803;DHT22;10562;-33.856;151.182;2022-08-23T11:49:34;7.70;99.90
20803;DHT22;10562;-33.856;151.182;2022-08-23T11:52:17;7.70;99.90
20803;DHT22;10562;-33.856;151.182;2022-08-23T11:55:15;7.70;99.90
20803;DHT22;10562;-33.856;151.182;2022-08-23T11:57:58;7.70;99.90
20803;DHT22;10562;-33.856;151.182;2022-08-23T12:01:06;7.60;99.90
20803;DHT22;10562;-33.856;151.182;2022-08-23T12:03:51;7.70;99.90
20803;DHT22;10562;-33.856;151.182;2022-08-23T12:06:42;7.70;99.90
20803;DHT22;10562;-33.856;151.182;2022-08-23T12:09:53;7.70;99.90
20803;DHT22;10562;-33.856;151.182;2022-08-23T12:12:29;7.80;99.90
20803;DHT22;10562;-33.856;151.182;2022-08-23T12:15:03;7.80;99.90
20803;DHT22;10562;-33.856;151.182;2022-08-23T12:18:05;7.80;99.90
20803;DHT22;10562;-33.856;151.182;2022-08-23T12:20:39;7.80;99.90
20803;DHT22;10562;-33.856;151.182;2022-08-23T12:23:16;7.80;99.90
20803;DHT22;10562;-33.856;151.182;2022-08-23T12:26:05;7.90;99.90
20803;DHT22;10562;-33.856;151.182;2022-08-23T12:28:44;7.90;99.90
20803;DHT22;10562;-33.856;151.182;2022-08-23T12:31:26;7.80;99.90
20803;DHT22;10562;-33.856;151.182;2022-08-23T12:34:24;7.80;99.90
20803;DHT22;10562;-33.856;151.182;2022-08-23T12:37:03;7.90;99.90
20803;DHT22;10562;-33.856;151.182;2022-08-23T12:39:39;7.90;99.90
20803;DHT22;10562;-33.856;151.182;2022-08-23T12:42:17;7.90;99.90
20803;DHT22;10562;-33.856;151.182;2022-08-23T12:45:00;7.90;99.90
20803;DHT22;10562;-33.856;151.182;2022-08-23T12:47:31;7.90;99.90
20803;DHT22;10562;-33.856;151.182;2022-08-23T12:50:05;7.90;99.90
20803;DHT22;10562;-33.856;151.182;2022-08-23T12:52:39;7.90;99.90
20803;DHT22;10562;-33.856;151.182;2022-08-23T12:55:14;7.90;99.90
20803;DHT22;10562;-33.856;151.182;2022-08-23T12:57:51;7.90;99.90
20803;DHT22;10562;-33.856;151.182;2022-08-23T13:00:25;8.00;99.90
20803;DHT22;10562;-33.856;151.182;2022-08-23T13:03:00;7.90;99.90
20803;DHT22;10562;-33.856;151.182;2022-08-23T13:05:38;7.90;99.90
20803;DHT22;10562;-33.856;151.182;2022-08-23T13:08:14;7.90;99.90
20803;DHT22;10562;-33.856;151.182;2022-08-23T13:10:47;8.00;99.90
20803;DHT22;10562;-33.856;151.182;2022-08-23T13:13:22;8.00;99.90
20803;DHT22;10562;-33.856;151.182;2022-08-23T13:15:57;8.00;99.90
20803;DHT22;10562;-33.856;151.182;2022-08-23T13:18:31;8.00;99.90
20803;DHT22;10562;-33.856;151.182;2022-08-23T13:21:28;8.10;99.90
20803;DHT22;10562;-33.856;151.182;2022-08-23T13:24:24;8.10;99.90
20803;DHT22;10562;-33.856;151.182;2022-08-23T13:27:12;8.00;99.90
20803;DHT22;10562;-33.856;151.182;2022-08-23T13:29:54;8.10;99.90
20803;DHT22;10562;-33.856;151.182;2022-08-23T13:32:34;8.10;99.90
20803;DHT22;10562;-33.856;151.182;2022-08-23T13:35:35;8.10;99.90
20803;DHT22;10562;-33.856;151.182;2022-08-23T13:38:16;8.10;99.90
20803;DHT22;10562;-33.856;151.182;2022-08-23T13:40:55;8.10;99.90
20803;DHT22;10562;-33.856;151.182;2022-08-23T13:43:30;8.10;99.90
20803;DHT22;10562;-33.856;151.182;2022-08-23T13:46:11;8.20;99.90
20803;DHT22;10562;-33.856;151.182;2022-08-23T13:48:47;8.20;99.90
20803;DHT22;10562;-33.856;151.182;2022-08-23T13:51:26;8.30;99.90
20803;DHT22;10562;-33.856;151.182;2022-08-23T13:53:59;8.30;99.90
20803;DHT22;10562;-33.856;151.182;2022-08-23T13:56:37;8.30;99.90
20803;DHT22;10562;-33.856;151.182;2022-08-23T13:59:26;8.30;99.90
20803;DHT22;10562;-33.856;151.182;2022-08-23T14:01:59;8.30;99.90
20803;DHT22;10562;-33.856;151.182;2022-08-23T14:04:32;8.40;99.90
20803;DHT22;10562;-33.856;151.182;2022-08-23T14:07:03;8.40;99.90
20803;DHT22;10562;-33.856;151.182;2022-08-23T14:09:34;8.40;99.90
20803;DHT22;10562;-33.856;151.182;2022-08-23T14:12:10;8.50;99.90
20803;DHT22;10562;-33.856;151.182;2022-08-23T14:14:43;8.50;99.90
20803;DHT22;10562;-33.856;151.182;2022-08-23T14:17:15;8.50;99.90
20803;DHT22;10562;-33.856;151.182;2022-08-23T14:19:46;8.50;99.90
20803;DHT22;10562;-33.856;151.182;2022-08-23T14:22:17;8.50;99.90
20803;DHT22;10562;-33.856;151.182;2022-08-23T14:24:48;8.60;99.90
20803;DHT22;10562;-33.856;151.182;2022-08-23T14:27:21;8.60;99.90
20803;DHT22;10562;-33.856;151.182;2022-08-23T14:29:51;8.60;99.90
20803;DHT22;10562;-33.856;151.182;2022-08-23T14:32:22;8.70;99.90
20803;DHT22;10562;-33.856;151.182;2022-08-23T14:34:53;8.70;99.90
20803;DHT22;10562;-33.856;151.182;2022-08-23T14:37:24;8.70;99.90
20803;DHT22;10562;-33.856;151.182;2022-08-23T14:39:56;8.80;99.90
20803;DHT22;10562;-33.856;151.182;2022-08-23T14:42:29;8.80;99.90
20803;DHT22;10562;-33.856;151.182;2022-08-23T14:45:00;8.70;99.90
20803;DHT22;10562;-33.856;151.182;2022-08-23T14:47:31;8.80;99.90
20803;DHT22;10562;-33.856;151.182;2022-08-23T14:50:03;8.80;99.90
20803;DHT22;10562;-33.856;151.182;2022-08-23T14:52:36;8.80;99.90
20803;DHT22;10562;-33.856;151.182;2022-08-23T14:55:08;8.80;99.90
20803;DHT22;10562;-33.856;151.182;2022-08-23T14:57:41;8.90;99.90
20803;DHT22;10562;-33.856;151.182;2022-08-23T15:00:12;8.90;99.90
20803;DHT22;10562;-33.856;151.182;2022-08-23T15:02:45;8.90;99.90
20803;DHT22;10562;-33.856;151.182;2022-08-23T15:05:17;8.90;99.90
20803;DHT22;10562;-33.856;151.182;2022-08-23T15:07:47;8.90;99.90
20803;DHT22;10562;-33.856;151.182;2022-08-23T15:10:19;8.90;99.90
20803;DHT22;10562;-33.856;151.182;2022-08-23T15:12:52;8.90;99.90
20803;DHT22;10562;-33.856;151.182;2022-08-23T15:15:23;8.90;99.90
20803;DHT22;10562;-33.856;151.182;2022-08-23T15:17:56;8.90;99.90
20803;DHT22;10562;-33.856;151.182;2022-08-23T15:20:29;8.90;99.90
20803;DHT22;10562;-33.856;151.182;2022-08-23T15:23:00;8.90;99.90
20803;DHT22;10562;-33.856;151.182;2022-08-23T15:25:32;8.90;99.90
20803;DHT22;10562;-33.856;151.182;2022-08-23T15:28:06;9.00;99.90
20803;DHT22;10562;-33.856;151.182;2022-08-23T15:30:37;9.00;99.90
20803;DHT22;10562;-33.856;151.182;2022-08-23T15:33:08;9.00;99.90
20803;DHT22;10562;-33.856;151.182;2022-08-23T15:35:41;9.00;99.90
20803;DHT22;10562;-33.856;151.182;2022-08-23T15:38:14;9.00;99.90
20803;DHT22;10562;-33.856;151.182;2022-08-23T15:40:45;9.00;99.90
20803;DHT22;10562;-33.856;151.182;2022-08-23T15:43:18;9.00;99.90
20803;DHT22;10562;-33.856;151.182;2022-08-23T15:45:49;9.00;99.90
20803;DHT22;10562;-33.856;151.182;2022-08-23T15:48:22;9.00;99.90
20803;DHT22;10562;-33.856;151.182;2022-08-23T15:50:54;9.00;99.90